North River — WYR2549 — position and weather

sailwx.info

Track history (hours):
 
Tides and Currents Weather Stations Pressure Air Temp Water Temp Dewpoint Dewpoint Depression Visibility Wind Speed Wind Dir Waves Ship Positions

North River

Owner: CITY OF NEW YORK, Brooklyn, NY. More information available from US FCC via Universal Licensing System and Coast Guard Vessel Documentation Center.

Last reported at 2014-Oct-21 18:14 UTC. Time now 2014-Oct-22 00:16 UTC.
Position N 40°47' W 073°53'.

Length 78 m.

Type: Tanker. MMSI: 367074110.

Date/timePositionNaut miles runAvg speedWind from/ knotsBaromVisibWave heightAir tempDewpointWater temp
2014-Oct-21 18:14N 40°47' W 073°53'3 5.2
2014-Oct-21 17:34N 40°45' W 073°57'2 2.3
2014-Oct-21 16:33N 40°47' W 074°00'3 1.4
2014-Oct-21 14:23N 40°49' W 073°58'7 8.3
2014-Oct-21 13:33N 40°43' W 073°59'6 5.9
2014-Oct-21 12:33N 40°47' W 073°54'0 0.0
2014-Oct-21 11:33N 40°47' W 073°54'  
2014-Oct-16 20:21N 40°47' W 073°54'7 9.4
2014-Oct-16 19:34N 40°42' W 074°00'8 8.4
2014-Oct-16 18:33N 40°34' W 073°57'6 5.5
2014-Oct-16 17:33N 40°35' W 073°50'0 0.0
2014-Oct-16 16:30N 40°35' W 073°50'0 0.0
2014-Oct-16 15:30N 40°35' W 073°50'2 1.7
2014-Oct-16 14:33N 40°35' W 073°52'9 8.8
2014-Oct-16 13:33N 40°39' W 074°02'  
Track history (hours):
 
Tides and Currents Weather Stations Pressure Air Temp Water Temp Dewpoint Dewpoint Depression Visibility Wind Speed Wind Dir Waves Ship Positions

North River

Owner: CITY OF NEW YORK, Brooklyn, NY. More information available from US FCC via Universal Licensing System and Coast Guard Vessel Documentation Center.

Last reported at 2014-Oct-21 18:14 UTC. Time now 2014-Oct-22 00:16 UTC.
Position N 40°47' W 073°53'.

Length 78 m.

Type: Tanker. MMSI: 367074110.

Date/timePositionNaut miles runAvg speedWind from/ knotsBaromVisibWave heightAir tempDewpointWater temp
2014-Oct-21 18:14N 40°47' W 073°53'3 5.2
2014-Oct-21 17:34N 40°45' W 073°57'2 2.3
2014-Oct-21 16:33N 40°47' W 074°00'3 1.4
2014-Oct-21 14:23N 40°49' W 073°58'7 8.3
2014-Oct-21 13:33N 40°43' W 073°59'6 5.9
2014-Oct-21 12:33N 40°47' W 073°54'0 0.0
2014-Oct-21 11:33N 40°47' W 073°54'  
2014-Oct-16 20:21N 40°47' W 073°54'7 9.4
2014-Oct-16 19:34N 40°42' W 074°00'8 8.4
2014-Oct-16 18:33N 40°34' W 073°57'6 5.5
2014-Oct-16 17:33N 40°35' W 073°50'0 0.0
2014-Oct-16 16:30N 40°35' W 073°50'0 0.0
2014-Oct-16 15:30N 40°35' W 073°50'2 1.7
2014-Oct-16 14:33N 40°35' W 073°52'9 8.8
2014-Oct-16 13:33N 40°39' W 074°02'  

Dump ship's entire track history